sensor_id;sensor_type;location;lat;lon;timestamp;P1;durP1;ratioP1;P2;durP2;ratioP2
74658;SDS011;63186;51.204;6.536;2022-12-13T00:01:26;23.08;;;13.63;;
74658;SDS011;63186;51.204;6.536;2022-12-13T00:03:53;24.52;;;13.27;;
74658;SDS011;63186;51.204;6.536;2022-12-13T00:06:23;28.60;;;13.65;;
74658;SDS011;63186;51.204;6.536;2022-12-13T00:08:49;28.75;;;15.43;;
74658;SDS011;63186;51.204;6.536;2022-12-13T00:11:14;22.63;;;13.40;;
74658;SDS011;63186;51.204;6.536;2022-12-13T00:13:40;24.90;;;12.47;;
74658;SDS011;63186;51.204;6.536;2022-12-13T00:16:07;30.95;;;13.80;;
74658;SDS011;63186;51.204;6.536;2022-12-13T00:18:35;24.75;;;14.52;;
74658;SDS011;63186;51.204;6.536;2022-12-13T00:21:04;23.33;;;12.20;;
74658;SDS011;63186;51.204;6.536;2022-12-13T00:23:30;29.02;;;13.55;;
74658;SDS011;63186;51.204;6.536;2022-12-13T00:26:00;23.73;;;12.63;;
74658;SDS011;63186;51.204;6.536;2022-12-13T00:28:36;25.15;;;11.55;;
74658;SDS011;63186;51.204;6.536;2022-12-13T00:31:02;25.73;;;14.38;;
74658;SDS011;63186;51.204;6.536;2022-12-13T00:33:28;23.88;;;11.65;;
74658;SDS011;63186;51.204;6.536;2022-12-13T00:35:54;24.75;;;12.95;;
74658;SDS011;63186;51.204;6.536;2022-12-13T00:38:20;24.02;;;12.48;;
74658;SDS011;63186;51.204;6.536;2022-12-13T00:40:46;26.10;;;13.98;;
74658;SDS011;63186;51.204;6.536;2022-12-13T00:43:11;29.20;;;14.43;;
74658;SDS011;63186;51.204;6.536;2022-12-13T00:45:36;25.35;;;13.48;;
74658;SDS011;63186;51.204;6.536;2022-12-13T00:48:02;26.58;;;14.18;;
74658;SDS011;63186;51.204;6.536;2022-12-13T00:50:28;26.40;;;13.27;;
74658;SDS011;63186;51.204;6.536;2022-12-13T00:52:53;26.87;;;14.27;;
74658;SDS011;63186;51.204;6.536;2022-12-13T00:55:19;24.47;;;14.00;;
74658;SDS011;63186;51.204;6.536;2022-12-13T00:57:44;29.67;;;13.77;;
74658;SDS011;63186;51.204;6.536;2022-12-13T01:00:09;26.17;;;14.03;;
74658;SDS011;63186;51.204;6.536;2022-12-13T01:02:36;30.15;;;16.52;;
74658;SDS011;63186;51.204;6.536;2022-12-13T01:05:01;20.80;;;12.00;;
74658;SDS011;63186;51.204;6.536;2022-12-13T01:07:26;24.40;;;12.90;;
74658;SDS011;63186;51.204;6.536;2022-12-13T01:09:51;26.37;;;13.63;;
74658;SDS011;63186;51.204;6.536;2022-12-13T01:12:17;28.35;;;14.43;;
74658;SDS011;63186;51.204;6.536;2022-12-13T01:14:42;30.00;;;16.80;;
74658;SDS011;63186;51.204;6.536;2022-12-13T01:17:07;27.25;;;16.52;;
74658;SDS011;63186;51.204;6.536;2022-12-13T01:19:33;28.23;;;15.10;;
74658;SDS011;63186;51.204;6.536;2022-12-13T01:21:59;27.48;;;13.85;;
74658;SDS011;63186;51.204;6.536;2022-12-13T01:24:26;24.65;;;12.05;;
74658;SDS011;63186;51.204;6.536;2022-12-13T01:26:53;21.58;;;10.43;;
74658;SDS011;63186;51.204;6.536;2022-12-13T01:29:19;25.35;;;12.82;;
74658;SDS011;63186;51.204;6.536;2022-12-13T01:31:45;19.20;;;11.27;;
74658;SDS011;63186;51.204;6.536;2022-12-13T01:34:12;29.52;;;13.32;;
74658;SDS011;63186;51.204;6.536;2022-12-13T01:36:39;20.45;;;11.35;;
74658;SDS011;63186;51.204;6.536;2022-12-13T01:39:06;26.15;;;12.30;;
74658;SDS011;63186;51.204;6.536;2022-12-13T01:41:33;27.60;;;16.70;;
74658;SDS011;63186;51.204;6.536;2022-12-13T01:43:59;24.00;;;13.07;;
74658;SDS011;63186;51.204;6.536;2022-12-13T01:46:51;25.52;;;14.35;;
74658;SDS011;63186;51.204;6.536;2022-12-13T01:49:16;22.50;;;11.23;;
74658;SDS011;63186;51.204;6.536;2022-12-13T01:51:45;30.67;;;13.70;;
74658;SDS011;63186;51.204;6.536;2022-12-13T01:54:16;27.27;;;13.30;;
74658;SDS011;63186;51.204;6.536;2022-12-13T01:56:48;24.80;;;13.32;;
74658;SDS011;63186;51.204;6.536;2022-12-13T01:59:17;27.30;;;13.25;;
74658;SDS011;63186;51.204;6.536;2022-12-13T02:01:44;29.67;;;14.73;;
74658;SDS011;63186;51.204;6.536;2022-12-13T02:04:12;30.50;;;15.30;;
74658;SDS011;63186;51.204;6.536;2022-12-13T02:06:41;27.23;;;14.77;;
74658;SDS011;63186;51.204;6.536;2022-12-13T02:09:09;25.20;;;13.90;;
74658;SDS011;63186;51.204;6.536;2022-12-13T02:11:39;26.05;;;15.25;;
74658;SDS011;63186;51.204;6.536;2022-12-13T02:14:06;28.88;;;14.98;;
74658;SDS011;63186;51.204;6.536;2022-12-13T02:30:32;25.00;;;13.27;;
74658;SDS011;63186;51.204;6.536;2022-12-13T02:38:19;24.98;;;12.82;;
74658;SDS011;63186;51.204;6.536;2022-12-13T02:40:59;26.70;;;13.88;;
74658;SDS011;63186;51.204;6.536;2022-12-13T02:43:39;24.13;;;13.18;;
74658;SDS011;63186;51.204;6.536;2022-12-13T02:46:13;27.10;;;14.10;;
74658;SDS011;63186;51.204;6.536;2022-12-13T02:48:42;23.67;;;13.80;;
74658;SDS011;63186;51.204;6.536;2022-12-13T02:51:09;21.08;;;14.00;;
74658;SDS011;63186;51.204;6.536;2022-12-13T02:53:37;24.02;;;12.43;;
74658;SDS011;63186;51.204;6.536;2022-12-13T02:56:05;22.65;;;12.75;;
74658;SDS011;63186;51.204;6.536;2022-12-13T02:58:32;26.70;;;13.53;;
74658;SDS011;63186;51.204;6.536;2022-12-13T03:01:07;30.23;;;13.18;;
74658;SDS011;63186;51.204;6.536;2022-12-13T03:03:44;26.17;;;13.25;;
74658;SDS011;63186;51.204;6.536;2022-12-13T03:14:55;24.40;;;12.63;;
74658;SDS011;63186;51.204;6.536;2022-12-13T03:17:26;28.02;;;13.70;;
74658;SDS011;63186;51.204;6.536;2022-12-13T03:19:56;26.77;;;11.98;;
74658;SDS011;63186;51.204;6.536;2022-12-13T03:22:22;22.05;;;12.15;;
74658;SDS011;63186;51.204;6.536;2022-12-13T03:24:47;24.70;;;12.93;;
74658;SDS011;63186;51.204;6.536;2022-12-13T03:27:13;22.83;;;11.63;;
74658;SDS011;63186;51.204;6.536;2022-12-13T03:29:39;26.33;;;12.57;;
74658;SDS011;63186;51.204;6.536;2022-12-13T03:32:04;31.60;;;14.83;;
74658;SDS011;63186;51.204;6.536;2022-12-13T03:34:29;25.00;;;13.68;;
74658;SDS011;63186;51.204;6.536;2022-12-13T03:36:54;31.20;;;14.43;;
74658;SDS011;63186;51.204;6.536;2022-12-13T03:39:20;27.88;;;12.50;;
74658;SDS011;63186;51.204;6.536;2022-12-13T03:41:46;26.85;;;13.27;;
74658;SDS011;63186;51.204;6.536;2022-12-13T03:44:12;26.15;;;12.95;;
74658;SDS011;63186;51.204;6.536;2022-12-13T03:46:38;32.50;;;14.80;;
74658;SDS011;63186;51.204;6.536;2022-12-13T03:49:03;29.87;;;14.87;;
74658;SDS011;63186;51.204;6.536;2022-12-13T03:51:28;27.25;;;14.40;;
74658;SDS011;63186;51.204;6.536;2022-12-13T03:53:54;27.63;;;14.97;;
74658;SDS011;63186;51.204;6.536;2022-12-13T03:56:19;31.15;;;16.02;;
74658;SDS011;63186;51.204;6.536;2022-12-13T03:58:44;34.63;;;17.67;;
74658;SDS011;63186;51.204;6.536;2022-12-13T04:01:11;28.67;;;14.20;;
74658;SDS011;63186;51.204;6.536;2022-12-13T04:03:38;25.40;;;13.40;;
74658;SDS011;63186;51.204;6.536;2022-12-13T04:06:05;36.17;;;16.33;;
74658;SDS011;63186;51.204;6.536;2022-12-13T04:08:32;36.35;;;14.73;;
74658;SDS011;63186;51.204;6.536;2022-12-13T04:10:58;30.85;;;15.65;;
74658;SDS011;63186;51.204;6.536;2022-12-13T04:13:23;33.70;;;20.33;;
74658;SDS011;63186;51.204;6.536;2022-12-13T04:15:58;31.40;;;16.02;;
74658;SDS011;63186;51.204;6.536;2022-12-13T04:18:23;33.00;;;15.60;;
74658;SDS011;63186;51.204;6.536;2022-12-13T04:20:48;28.20;;;13.33;;
74658;SDS011;63186;51.204;6.536;2022-12-13T04:23:14;28.93;;;13.93;;
74658;SDS011;63186;51.204;6.536;2022-12-13T04:25:39;27.20;;;15.43;;
74658;SDS011;63186;51.204;6.536;2022-12-13T04:28:07;27.52;;;14.43;;
74658;SDS011;63186;51.204;6.536;2022-12-13T04:30:32;26.13;;;13.38;;
74658;SDS011;63186;51.204;6.536;2022-12-13T04:32:58;33.00;;;14.63;;
74658;SDS011;63186;51.204;6.536;2022-12-13T04:35:24;31.90;;;15.60;;
74658;SDS011;63186;51.204;6.536;2022-12-13T04:37:49;28.50;;;12.25;;
74658;SDS011;63186;51.204;6.536;2022-12-13T04:40:14;30.27;;;13.53;;
74658;SDS011;63186;51.204;6.536;2022-12-13T04:42:40;33.25;;;15.15;;
74658;SDS011;63186;51.204;6.536;2022-12-13T04:45:05;32.20;;;16.87;;
74658;SDS011;63186;51.204;6.536;2022-12-13T04:47:31;28.63;;;15.23;;
74658;SDS011;63186;51.204;6.536;2022-12-13T04:49:56;29.90;;;17.00;;
74658;SDS011;63186;51.204;6.536;2022-12-13T04:52:21;34.13;;;14.37;;
74658;SDS011;63186;51.204;6.536;2022-12-13T04:54:47;32.37;;;14.20;;
74658;SDS011;63186;51.204;6.536;2022-12-13T04:57:12;31.90;;;14.07;;
74658;SDS011;63186;51.204;6.536;2022-12-13T04:59:37;31.23;;;14.60;;
74658;SDS011;63186;51.204;6.536;2022-12-13T05:02:03;34.55;;;14.65;;
74658;SDS011;63186;51.204;6.536;2022-12-13T05:04:30;23.00;;;10.63;;
74658;SDS011;63186;51.204;6.536;2022-12-13T05:06:55;26.90;;;13.00;;
74658;SDS011;63186;51.204;6.536;2022-12-13T05:09:21;34.50;;;15.23;;
74658;SDS011;63186;51.204;6.536;2022-12-13T05:11:47;30.25;;;12.80;;
74658;SDS011;63186;51.204;6.536;2022-12-13T05:14:12;27.70;;;15.63;;
74658;SDS011;63186;51.204;6.536;2022-12-13T05:16:37;22.53;;;12.17;;
74658;SDS011;63186;51.204;6.536;2022-12-13T05:19:02;29.10;;;13.20;;
74658;SDS011;63186;51.204;6.536;2022-12-13T05:21:28;31.88;;;14.45;;
74658;SDS011;63186;51.204;6.536;2022-12-13T05:23:53;29.70;;;15.03;;
74658;SDS011;63186;51.204;6.536;2022-12-13T05:26:18;22.33;;;11.30;;
74658;SDS011;63186;51.204;6.536;2022-12-13T05:28:44;27.13;;;13.70;;
74658;SDS011;63186;51.204;6.536;2022-12-13T05:31:10;25.48;;;12.57;;
74658;SDS011;63186;51.204;6.536;2022-12-13T05:33:36;29.35;;;12.90;;
74658;SDS011;63186;51.204;6.536;2022-12-13T05:36:02;30.08;;;14.27;;
74658;SDS011;63186;51.204;6.536;2022-12-13T05:38:29;25.33;;;12.90;;
74658;SDS011;63186;51.204;6.536;2022-12-13T05:40:55;32.70;;;14.25;;
74658;SDS011;63186;51.204;6.536;2022-12-13T05:43:20;22.73;;;11.77;;
74658;SDS011;63186;51.204;6.536;2022-12-13T05:45:45;18.23;;;10.90;;
74658;SDS011;63186;51.204;6.536;2022-12-13T05:48:11;28.40;;;14.87;;
74658;SDS011;63186;51.204;6.536;2022-12-13T05:50:36;21.40;;;11.10;;
74658;SDS011;63186;51.204;6.536;2022-12-13T05:53:04;28.08;;;12.65;;
74658;SDS011;63186;51.204;6.536;2022-12-13T05:55:30;26.77;;;12.97;;
74658;SDS011;63186;51.204;6.536;2022-12-13T05:57:56;28.33;;;13.15;;
74658;SDS011;63186;51.204;6.536;2022-12-13T06:00:22;28.48;;;17.15;;
74658;SDS011;63186;51.204;6.536;2022-12-13T06:02:47;31.85;;;12.65;;
74658;SDS011;63186;51.204;6.536;2022-12-13T06:05:12;31.30;;;13.93;;
74658;SDS011;63186;51.204;6.536;2022-12-13T06:07:38;19.70;;;8.70;;
74658;SDS011;63186;51.204;6.536;2022-12-13T06:10:03;21.20;;;11.70;;
74658;SDS011;63186;51.204;6.536;2022-12-13T06:12:29;27.83;;;15.05;;
74658;SDS011;63186;51.204;6.536;2022-12-13T06:14:54;27.17;;;14.03;;
74658;SDS011;63186;51.204;6.536;2022-12-13T06:17:20;26.67;;;13.53;;
74658;SDS011;63186;51.204;6.536;2022-12-13T06:19:48;30.13;;;13.40;;
74658;SDS011;63186;51.204;6.536;2022-12-13T06:22:14;22.15;;;10.65;;
74658;SDS011;63186;51.204;6.536;2022-12-13T06:24:40;37.77;;;14.93;;
74658;SDS011;63186;51.204;6.536;2022-12-13T06:27:05;28.17;;;13.93;;
74658;SDS011;63186;51.204;6.536;2022-12-13T06:29:30;16.70;;;8.77;;
74658;SDS011;63186;51.204;6.536;2022-12-13T06:31:56;33.10;;;16.23;;
74658;SDS011;63186;51.204;6.536;2022-12-13T06:34:24;29.25;;;12.05;;
74658;SDS011;63186;51.204;6.536;2022-12-13T06:36:49;31.60;;;15.18;;
74658;SDS011;63186;51.204;6.536;2022-12-13T06:39:14;29.08;;;13.70;;
74658;SDS011;63186;51.204;6.536;2022-12-13T06:41:40;27.02;;;15.50;;
74658;SDS011;63186;51.204;6.536;2022-12-13T06:44:06;24.00;;;12.05;;
74658;SDS011;63186;51.204;6.536;2022-12-13T06:46:32;28.00;;;14.65;;
74658;SDS011;63186;51.204;6.536;2022-12-13T06:48:57;36.80;;;18.73;;
74658;SDS011;63186;51.204;6.536;2022-12-13T06:51:23;34.97;;;16.10;;
74658;SDS011;63186;51.204;6.536;2022-12-13T06:53:48;27.63;;;14.23;;
74658;SDS011;63186;51.204;6.536;2022-12-13T06:56:14;35.20;;;12.57;;
74658;SDS011;63186;51.204;6.536;2022-12-13T06:58:40;36.75;;;16.85;;
74658;SDS011;63186;51.204;6.536;2022-12-13T07:01:07;30.00;;;15.13;;
74658;SDS011;63186;51.204;6.536;2022-12-13T07:03:34;33.17;;;15.38;;
74658;SDS011;63186;51.204;6.536;2022-12-13T07:06:04;33.75;;;16.90;;
74658;SDS011;63186;51.204;6.536;2022-12-13T07:08:54;35.53;;;17.95;;
74658;SDS011;63186;51.204;6.536;2022-12-13T07:11:21;29.35;;;17.38;;
74658;SDS011;63186;51.204;6.536;2022-12-13T07:13:53;25.65;;;15.30;;
74658;SDS011;63186;51.204;6.536;2022-12-13T07:16:19;23.27;;;11.35;;
74658;SDS011;63186;51.204;6.536;2022-12-13T07:18:45;27.75;;;14.63;;
74658;SDS011;63186;51.204;6.536;2022-12-13T07:21:11;31.23;;;13.23;;
74658;SDS011;63186;51.204;6.536;2022-12-13T07:23:38;32.25;;;16.33;;
74658;SDS011;63186;51.204;6.536;2022-12-13T07:26:04;26.27;;;13.57;;
74658;SDS011;63186;51.204;6.536;2022-12-13T07:28:34;25.90;;;14.68;;
74658;SDS011;63186;51.204;6.536;2022-12-13T07:31:01;29.13;;;15.13;;
74658;SDS011;63186;51.204;6.536;2022-12-13T07:33:28;32.05;;;14.15;;
74658;SDS011;63186;51.204;6.536;2022-12-13T07:36:00;29.48;;;16.52;;
74658;SDS011;63186;51.204;6.536;2022-12-13T07:38:25;32.53;;;15.60;;
74658;SDS011;63186;51.204;6.536;2022-12-13T07:40:51;29.00;;;15.63;;
74658;SDS011;63186;51.204;6.536;2022-12-13T07:43:20;29.73;;;14.45;;
74658;SDS011;63186;51.204;6.536;2022-12-13T07:45:46;25.53;;;12.97;;
74658;SDS011;63186;51.204;6.536;2022-12-13T07:48:11;24.60;;;12.10;;
74658;SDS011;63186;51.204;6.536;2022-12-13T07:50:36;32.20;;;15.70;;
74658;SDS011;63186;51.204;6.536;2022-12-13T07:53:05;31.03;;;15.97;;
74658;SDS011;63186;51.204;6.536;2022-12-13T07:55:32;21.60;;;12.75;;
74658;SDS011;63186;51.204;6.536;2022-12-13T07:58:02;32.55;;;14.70;;
74658;SDS011;63186;51.204;6.536;2022-12-13T08:00:28;27.73;;;13.85;;
74658;SDS011;63186;51.204;6.536;2022-12-13T08:02:53;15.67;;;9.37;;
74658;SDS011;63186;51.204;6.536;2022-12-13T08:05:19;31.50;;;15.87;;
74658;SDS011;63186;51.204;6.536;2022-12-13T08:07:45;32.88;;;17.15;;
74658;SDS011;63186;51.204;6.536;2022-12-13T08:10:10;33.45;;;15.43;;
74658;SDS011;63186;51.204;6.536;2022-12-13T08:12:36;33.03;;;15.13;;
74658;SDS011;63186;51.204;6.536;2022-12-13T08:15:01;36.17;;;18.63;;
74658;SDS011;63186;51.204;6.536;2022-12-13T08:17:26;39.15;;;17.73;;
74658;SDS011;63186;51.204;6.536;2022-12-13T08:19:52;33.23;;;16.93;;
74658;SDS011;63186;51.204;6.536;2022-12-13T08:22:17;36.37;;;20.37;;
74658;SDS011;63186;51.204;6.536;2022-12-13T08:24:42;32.40;;;17.13;;
74658;SDS011;63186;51.204;6.536;2022-12-13T08:27:07;25.50;;;11.60;;
74658;SDS011;63186;51.204;6.536;2022-12-13T08:29:33;33.37;;;17.37;;
74658;SDS011;63186;51.204;6.536;2022-12-13T08:32:00;25.10;;;14.13;;
74658;SDS011;63186;51.204;6.536;2022-12-13T08:34:29;24.52;;;13.10;;
74658;SDS011;63186;51.204;6.536;2022-12-13T08:36:55;24.60;;;12.40;;
74658;SDS011;63186;51.204;6.536;2022-12-13T08:39:20;31.52;;;15.15;;
74658;SDS011;63186;51.204;6.536;2022-12-13T08:41:46;31.33;;;18.47;;
74658;SDS011;63186;51.204;6.536;2022-12-13T08:44:11;29.57;;;18.03;;
74658;SDS011;63186;51.204;6.536;2022-12-13T08:46:36;33.27;;;18.63;;
74658;SDS011;63186;51.204;6.536;2022-12-13T08:49:01;26.93;;;13.93;;
74658;SDS011;63186;51.204;6.536;2022-12-13T08:51:27;20.07;;;10.27;;
74658;SDS011;63186;51.204;6.536;2022-12-13T08:53:52;21.27;;;13.43;;
74658;SDS011;63186;51.204;6.536;2022-12-13T08:56:17;23.13;;;13.20;;
74658;SDS011;63186;51.204;6.536;2022-12-13T08:58:42;27.30;;;13.23;;
74658;SDS011;63186;51.204;6.536;2022-12-13T09:01:08;30.77;;;15.50;;
74658;SDS011;63186;51.204;6.536;2022-12-13T09:03:34;33.10;;;15.07;;
74658;SDS011;63186;51.204;6.536;2022-12-13T09:06:07;30.42;;;15.00;;
74658;SDS011;63186;51.204;6.536;2022-12-13T09:08:35;29.88;;;14.73;;
74658;SDS011;63186;51.204;6.536;2022-12-13T09:11:01;26.95;;;13.35;;
74658;SDS011;63186;51.204;6.536;2022-12-13T09:13:27;30.58;;;14.98;;
74658;SDS011;63186;51.204;6.536;2022-12-13T09:15:55;28.13;;;14.57;;
74658;SDS011;63186;51.204;6.536;2022-12-13T09:18:20;28.27;;;13.48;;
74658;SDS011;63186;51.204;6.536;2022-12-13T09:20:45;27.70;;;14.47;;
74658;SDS011;63186;51.204;6.536;2022-12-13T09:23:11;25.03;;;13.90;;
74658;SDS011;63186;51.204;6.536;2022-12-13T09:25:36;30.87;;;12.60;;
74658;SDS011;63186;51.204;6.536;2022-12-13T09:28:02;26.42;;;13.65;;
74658;SDS011;63186;51.204;6.536;2022-12-13T09:30:27;25.15;;;12.43;;
74658;SDS011;63186;51.204;6.536;2022-12-13T09:32:53;27.10;;;13.83;;
74658;SDS011;63186;51.204;6.536;2022-12-13T09:35:19;30.08;;;14.55;;
74658;SDS011;63186;51.204;6.536;2022-12-13T09:37:44;28.40;;;13.80;;
74658;SDS011;63186;51.204;6.536;2022-12-13T09:40:20;25.40;;;11.63;;
74658;SDS011;63186;51.204;6.536;2022-12-13T09:42:50;26.98;;;15.50;;
74658;SDS011;63186;51.204;6.536;2022-12-13T09:45:18;31.08;;;14.18;;
74658;SDS011;63186;51.204;6.536;2022-12-13T09:47:44;30.17;;;15.98;;
74658;SDS011;63186;51.204;6.536;2022-12-13T09:50:34;17.23;;;10.30;;
74658;SDS011;63186;51.204;6.536;2022-12-13T09:52:59;30.95;;;12.45;;
74658;SDS011;63186;51.204;6.536;2022-12-13T09:55:27;28.50;;;13.75;;
74658;SDS011;63186;51.204;6.536;2022-12-13T09:57:56;24.05;;;12.20;;
74658;SDS011;63186;51.204;6.536;2022-12-13T10:00:25;25.23;;;13.80;;
74658;SDS011;63186;51.204;6.536;2022-12-13T10:02:57;21.75;;;12.30;;
74658;SDS011;63186;51.204;6.536;2022-12-13T10:07:52;24.33;;;11.82;;
74658;SDS011;63186;51.204;6.536;2022-12-13T10:10:20;24.33;;;13.32;;
74658;SDS011;63186;51.204;6.536;2022-12-13T10:12:47;25.23;;;12.57;;
74658;SDS011;63186;51.204;6.536;2022-12-13T10:15:20;21.23;;;10.38;;
74658;SDS011;63186;51.204;6.536;2022-12-13T10:17:46;21.08;;;11.05;;
74658;SDS011;63186;51.204;6.536;2022-12-13T10:20:18;19.60;;;10.07;;
74658;SDS011;63186;51.204;6.536;2022-12-13T10:22:45;29.15;;;14.93;;
74658;SDS011;63186;51.204;6.536;2022-12-13T10:25:11;23.67;;;12.07;;
74658;SDS011;63186;51.204;6.536;2022-12-13T10:27:40;23.30;;;12.02;;
74658;SDS011;63186;51.204;6.536;2022-12-13T10:37:44;22.90;;;11.95;;
74658;SDS011;63186;51.204;6.536;2022-12-13T10:40:22;26.03;;;11.90;;
74658;SDS011;63186;51.204;6.536;2022-12-13T10:45:32;25.00;;;12.60;;
74658;SDS011;63186;51.204;6.536;2022-12-13T10:47:57;24.27;;;11.70;;
74658;SDS011;63186;51.204;6.536;2022-12-13T10:50:25;23.40;;;12.35;;
74658;SDS011;63186;51.204;6.536;2022-12-13T10:52:53;14.82;;;8.70;;
74658;SDS011;63186;51.204;6.536;2022-12-13T10:55:34;21.10;;;9.73;;
74658;SDS011;63186;51.204;6.536;2022-12-13T10:58:02;21.10;;;12.13;;
74658;SDS011;63186;51.204;6.536;2022-12-13T11:03:03;23.70;;;10.70;;
74658;SDS011;63186;51.204;6.536;2022-12-13T11:05:30;21.33;;;12.00;;
74658;SDS011;63186;51.204;6.536;2022-12-13T11:11:00;21.25;;;11.55;;
74658;SDS011;63186;51.204;6.536;2022-12-13T11:13:32;19.45;;;10.00;;
74658;SDS011;63186;51.204;6.536;2022-12-13T11:15:58;23.15;;;11.20;;
74658;SDS011;63186;51.204;6.536;2022-12-13T11:18:26;21.55;;;9.75;;
74658;SDS011;63186;51.204;6.536;2022-12-13T11:21:00;20.25;;;13.32;;
74658;SDS011;63186;51.204;6.536;2022-12-13T11:23:52;20.90;;;11.07;;
74658;SDS011;63186;51.204;6.536;2022-12-13T11:26:18;22.80;;;10.05;;
74658;SDS011;63186;51.204;6.536;2022-12-13T11:28:59;23.10;;;11.13;;
74658;SDS011;63186;51.204;6.536;2022-12-13T11:37:26;21.63;;;9.93;;
74658;SDS011;63186;51.204;6.536;2022-12-13T11:40:01;20.77;;;9.85;;
74658;SDS011;63186;51.204;6.536;2022-12-13T11:42:44;22.55;;;11.50;;
74658;SDS011;63186;51.204;6.536;2022-12-13T11:45:18;23.83;;;11.35;;
74658;SDS011;63186;51.204;6.536;2022-12-13T11:47:49;23.40;;;12.75;;
74658;SDS011;63186;51.204;6.536;2022-12-13T11:50:30;25.50;;;11.10;;
74658;SDS011;63186;51.204;6.536;2022-12-13T11:53:04;20.02;;;10.80;;
74658;SDS011;63186;51.204;6.536;2022-12-13T11:55:43;23.42;;;15.90;;
74658;SDS011;63186;51.204;6.536;2022-12-13T12:01:11;22.48;;;12.90;;
74658;SDS011;63186;51.204;6.536;2022-12-13T12:03:45;24.08;;;12.80;;
74658;SDS011;63186;51.204;6.536;2022-12-13T12:06:22;21.92;;;10.35;;
74658;SDS011;63186;51.204;6.536;2022-12-13T12:08:58;19.77;;;10.65;;
74658;SDS011;63186;51.204;6.536;2022-12-13T12:14:28;21.63;;;10.02;;
74658;SDS011;63186;51.204;6.536;2022-12-13T12:16:57;20.08;;;10.20;;
74658;SDS011;63186;51.204;6.536;2022-12-13T12:19:24;19.77;;;10.77;;
74658;SDS011;63186;51.204;6.536;2022-12-13T12:22:16;23.00;;;10.68;;
74658;SDS011;63186;51.204;6.536;2022-12-13T12:27:43;21.98;;;9.88;;
74658;SDS011;63186;51.204;6.536;2022-12-13T12:30:14;22.00;;;11.02;;
74658;SDS011;63186;51.204;6.536;2022-12-13T12:35:43;20.08;;;10.15;;
74658;SDS011;63186;51.204;6.536;2022-12-13T12:41:16;13.18;;;7.22;;
74658;SDS011;63186;51.204;6.536;2022-12-13T12:43:44;18.60;;;7.85;;
74658;SDS011;63186;51.204;6.536;2022-12-13T12:46:29;23.55;;;11.95;;
74658;SDS011;63186;51.204;6.536;2022-12-13T12:57:35;20.38;;;9.75;;
74658;SDS011;63186;51.204;6.536;2022-12-13T13:00:11;21.67;;;11.05;;
74658;SDS011;63186;51.204;6.536;2022-12-13T13:05:34;16.23;;;8.93;;
74658;SDS011;63186;51.204;6.536;2022-12-13T13:08:11;18.00;;;10.07;;
74658;SDS011;63186;51.204;6.536;2022-12-13T13:10:49;16.02;;;7.47;;
74658;SDS011;63186;51.204;6.536;2022-12-13T13:13:33;13.80;;;7.68;;
74658;SDS011;63186;51.204;6.536;2022-12-13T13:16:00;17.80;;;8.27;;
74658;SDS011;63186;51.204;6.536;2022-12-13T13:21:54;18.10;;;8.77;;
74658;SDS011;63186;51.204;6.536;2022-12-13T13:24:12;18.00;;;8.90;;
74658;SDS011;63186;51.204;6.536;2022-12-13T13:26:40;19.48;;;9.82;;
74658;SDS011;63186;51.204;6.536;2022-12-13T13:42:17;21.33;;;12.45;;
74658;SDS011;63186;51.204;6.536;2022-12-13T13:52:17;19.08;;;10.43;;
74658;SDS011;63186;51.204;6.536;2022-12-13T13:54:57;18.27;;;8.88;;
74658;SDS011;63186;51.204;6.536;2022-12-13T13:57:54;19.95;;;9.68;;
74658;SDS011;63186;51.204;6.536;2022-12-13T14:15:48;18.77;;;8.43;;
74658;SDS011;63186;51.204;6.536;2022-12-13T14:24:11;21.52;;;11.13;;
74658;SDS011;63186;51.204;6.536;2022-12-13T14:29:39;18.50;;;8.10;;
74658;SDS011;63186;51.204;6.536;2022-12-13T14:32:08;16.45;;;7.85;;
74658;SDS011;63186;51.204;6.536;2022-12-13T14:34:38;18.15;;;8.52;;
74658;SDS011;63186;51.204;6.536;2022-12-13T14:37:04;18.02;;;9.35;;
74658;SDS011;63186;51.204;6.536;2022-12-13T14:39:42;17.52;;;7.45;;
74658;SDS011;63186;51.204;6.536;2022-12-13T14:44:52;17.75;;;8.45;;
74658;SDS011;63186;51.204;6.536;2022-12-13T14:47:18;18.13;;;8.35;;
74658;SDS011;63186;51.204;6.536;2022-12-13T14:49:45;21.23;;;9.38;;
74658;SDS011;63186;51.204;6.536;2022-12-13T14:54:58;19.38;;;8.80;;
74658;SDS011;63186;51.204;6.536;2022-12-13T14:57:28;23.40;;;9.73;;
74658;SDS011;63186;51.204;6.536;2022-12-13T14:59:56;18.95;;;7.78;;
74658;SDS011;63186;51.204;6.536;2022-12-13T15:02:24;18.05;;;9.20;;
74658;SDS011;63186;51.204;6.536;2022-12-13T15:04:55;17.55;;;8.98;;
74658;SDS011;63186;51.204;6.536;2022-12-13T15:12:29;17.80;;;8.45;;
74658;SDS011;63186;51.204;6.536;2022-12-13T15:17:36;21.13;;;9.77;;
74658;SDS011;63186;51.204;6.536;2022-12-13T15:22:54;17.20;;;7.68;;
74658;SDS011;63186;51.204;6.536;2022-12-13T15:25:23;14.57;;;6.88;;
74658;SDS011;63186;51.204;6.536;2022-12-13T15:27:48;17.85;;;9.48;;
74658;SDS011;63186;51.204;6.536;2022-12-13T15:30:16;14.07;;;8.30;;
74658;SDS011;63186;51.204;6.536;2022-12-13T15:33:00;17.63;;;8.32;;
74658;SDS011;63186;51.204;6.536;2022-12-13T15:35:30;19.33;;;8.57;;
74658;SDS011;63186;51.204;6.536;2022-12-13T15:37:57;22.75;;;9.18;;
74658;SDS011;63186;51.204;6.536;2022-12-13T15:40:22;19.67;;;9.23;;
74658;SDS011;63186;51.204;6.536;2022-12-13T15:42:47;19.67;;;8.80;;
74658;SDS011;63186;51.204;6.536;2022-12-13T15:45:22;17.27;;;8.35;;
74658;SDS011;63186;51.204;6.536;2022-12-13T15:47:49;15.27;;;8.48;;
74658;SDS011;63186;51.204;6.536;2022-12-13T15:50:35;19.83;;;9.05;;
74658;SDS011;63186;51.204;6.536;2022-12-13T15:53:24;19.40;;;9.18;;
74658;SDS011;63186;51.204;6.536;2022-12-13T15:55:51;16.67;;;8.77;;
74658;SDS011;63186;51.204;6.536;2022-12-13T15:58:21;19.40;;;10.40;;
74658;SDS011;63186;51.204;6.536;2022-12-13T16:00:51;22.55;;;9.70;;
74658;SDS011;63186;51.204;6.536;2022-12-13T16:03:20;16.88;;;11.15;;
74658;SDS011;63186;51.204;6.536;2022-12-13T16:05:49;21.83;;;17.35;;
74658;SDS011;63186;51.204;6.536;2022-12-13T16:10:48;18.38;;;10.27;;
74658;SDS011;63186;51.204;6.536;2022-12-13T16:13:21;19.17;;;10.13;;
74658;SDS011;63186;51.204;6.536;2022-12-13T16:15:53;20.30;;;10.90;;
74658;SDS011;63186;51.204;6.536;2022-12-13T16:18:23;18.92;;;9.98;;
74658;SDS011;63186;51.204;6.536;2022-12-13T16:20:53;23.02;;;9.93;;
74658;SDS011;63186;51.204;6.536;2022-12-13T16:23:18;18.88;;;9.93;;
74658;SDS011;63186;51.204;6.536;2022-12-13T16:25:44;21.33;;;9.90;;
74658;SDS011;63186;51.204;6.536;2022-12-13T16:33:22;17.35;;;10.98;;
74658;SDS011;63186;51.204;6.536;2022-12-13T16:35:48;22.77;;;11.85;;
74658;SDS011;63186;51.204;6.536;2022-12-13T16:38:14;25.23;;;12.38;;
74658;SDS011;63186;51.204;6.536;2022-12-13T16:40:40;20.92;;;9.95;;
74658;SDS011;63186;51.204;6.536;2022-12-13T16:43:12;20.80;;;9.60;;
74658;SDS011;63186;51.204;6.536;2022-12-13T16:45:40;19.00;;;10.15;;
74658;SDS011;63186;51.204;6.536;2022-12-13T16:48:08;16.42;;;8.95;;
74658;SDS011;63186;51.204;6.536;2022-12-13T16:50:34;19.13;;;10.10;;
74658;SDS011;63186;51.204;6.536;2022-12-13T16:53:01;20.30;;;10.55;;
74658;SDS011;63186;51.204;6.536;2022-12-13T16:55:27;21.13;;;10.80;;
74658;SDS011;63186;51.204;6.536;2022-12-13T17:00:26;20.67;;;11.88;;
74658;SDS011;63186;51.204;6.536;2022-12-13T17:02:53;21.17;;;11.00;;